sensor_id;sensor_type;location;lat;lon;timestamp;P1;durP1;ratioP1;P2;durP2;ratioP2
6424;SDS011;12193;42.642;23.384;2023-09-19T00:00:43;6.20;;;4.47;;
6424;SDS011;12193;42.642;23.384;2023-09-19T00:03:13;6.93;;;4.43;;
6424;SDS011;12193;42.642;23.384;2023-09-19T00:05:43;8.60;;;4.50;;
6424;SDS011;12193;42.642;23.384;2023-09-19T03:08:51;9.37;;;6.20;;
6424;SDS011;12193;42.642;23.384;2023-09-19T03:11:21;7.93;;;5.20;;
6424;SDS011;12193;42.642;23.384;2023-09-19T03:13:51;7.47;;;5.50;;
6424;SDS011;12193;42.642;23.384;2023-09-19T03:16:21;8.47;;;5.43;;
6424;SDS011;12193;42.642;23.384;2023-09-19T03:18:51;9.90;;;5.73;;
6424;SDS011;12193;42.642;23.384;2023-09-19T03:21:20;8.53;;;5.33;;
6424;SDS011;12193;42.642;23.384;2023-09-19T03:23:52;9.47;;;5.97;;
6424;SDS011;12193;42.642;23.384;2023-09-19T03:26:21;13.40;;;6.63;;
6424;SDS011;12193;42.642;23.384;2023-09-19T03:28:52;8.73;;;5.87;;
6424;SDS011;12193;42.642;23.384;2023-09-19T03:31:22;7.90;;;5.10;;
6424;SDS011;12193;42.642;23.384;2023-09-19T03:33:51;9.83;;;5.87;;
6424;SDS011;12193;42.642;23.384;2023-09-19T03:36:21;11.53;;;5.70;;
6424;SDS011;12193;42.642;23.384;2023-09-19T03:38:53;8.10;;;6.13;;
6424;SDS011;12193;42.642;23.384;2023-09-19T03:41:22;9.33;;;6.37;;
6424;SDS011;12193;42.642;23.384;2023-09-19T03:43:52;10.80;;;5.70;;
6424;SDS011;12193;42.642;23.384;2023-09-19T03:46:21;9.93;;;6.40;;
6424;SDS011;12193;42.642;23.384;2023-09-19T03:48:51;9.00;;;6.07;;
6424;SDS011;12193;42.642;23.384;2023-09-19T03:51:20;8.80;;;5.57;;
6424;SDS011;12193;42.642;23.384;2023-09-19T03:53:49;12.07;;;5.80;;
6424;SDS011;12193;42.642;23.384;2023-09-19T03:56:21;7.77;;;6.13;;
6424;SDS011;12193;42.642;23.384;2023-09-19T03:58:50;9.13;;;6.20;;
6424;SDS011;12193;42.642;23.384;2023-09-19T04:01:20;11.03;;;6.27;;
6424;SDS011;12193;42.642;23.384;2023-09-19T04:03:49;7.73;;;5.83;;
6424;SDS011;12193;42.642;23.384;2023-09-19T04:06:19;10.20;;;6.90;;
6424;SDS011;12193;42.642;23.384;2023-09-19T04:08:48;11.83;;;6.90;;
6424;SDS011;12193;42.642;23.384;2023-09-19T04:11:18;12.17;;;6.77;;
6424;SDS011;12193;42.642;23.384;2023-09-19T04:13:50;8.07;;;5.57;;
6424;SDS011;12193;42.642;23.384;2023-09-19T04:16:19;11.23;;;6.93;;
6424;SDS011;12193;42.642;23.384;2023-09-19T04:18:49;10.50;;;6.33;;
6424;SDS011;12193;42.642;23.384;2023-09-19T04:21:18;10.90;;;7.23;;
6424;SDS011;12193;42.642;23.384;2023-09-19T04:23:48;9.43;;;6.33;;
6424;SDS011;12193;42.642;23.384;2023-09-19T04:26:17;8.23;;;6.63;;
6424;SDS011;12193;42.642;23.384;2023-09-19T04:28:50;13.83;;;6.87;;
6424;SDS011;12193;42.642;23.384;2023-09-19T04:31:19;10.93;;;7.00;;
6424;SDS011;12193;42.642;23.384;2023-09-19T04:33:48;12.43;;;6.40;;
6424;SDS011;12193;42.642;23.384;2023-09-19T04:36:17;11.83;;;6.80;;
6424;SDS011;12193;42.642;23.384;2023-09-19T04:38:49;12.47;;;6.70;;
6424;SDS011;12193;42.642;23.384;2023-09-19T04:41:19;12.80;;;7.53;;
6424;SDS011;12193;42.642;23.384;2023-09-19T04:43:51;15.83;;;7.53;;
6424;SDS011;12193;42.642;23.384;2023-09-19T04:46:21;10.43;;;7.50;;
6424;SDS011;12193;42.642;23.384;2023-09-19T04:48:50;11.90;;;6.43;;
6424;SDS011;12193;42.642;23.384;2023-09-19T04:51:19;11.70;;;6.60;;
6424;SDS011;12193;42.642;23.384;2023-09-19T04:53:49;13.90;;;6.70;;
6424;SDS011;12193;42.642;23.384;2023-09-19T04:56:18;13.93;;;6.77;;
6424;SDS011;12193;42.642;23.384;2023-09-19T04:58:49;11.67;;;6.83;;
6424;SDS011;12193;42.642;23.384;2023-09-19T05:01:21;16.07;;;7.17;;
6424;SDS011;12193;42.642;23.384;2023-09-19T05:03:50;15.13;;;7.63;;
6424;SDS011;12193;42.642;23.384;2023-09-19T05:06:20;8.77;;;6.60;;
6424;SDS011;12193;42.642;23.384;2023-09-19T05:08:50;13.13;;;6.80;;
6424;SDS011;12193;42.642;23.384;2023-09-19T05:11:19;11.60;;;7.23;;
6424;SDS011;12193;42.642;23.384;2023-09-19T05:13:52;8.63;;;6.13;;
6424;SDS011;12193;42.642;23.384;2023-09-19T05:16:22;14.27;;;6.43;;
6424;SDS011;12193;42.642;23.384;2023-09-19T05:18:51;9.57;;;6.30;;
6424;SDS011;12193;42.642;23.384;2023-09-19T05:21:20;13.13;;;7.70;;
6424;SDS011;12193;42.642;23.384;2023-09-19T05:23:51;9.40;;;6.37;;
6424;SDS011;12193;42.642;23.384;2023-09-19T05:26:21;10.50;;;6.07;;
6424;SDS011;12193;42.642;23.384;2023-09-19T05:28:53;10.13;;;6.13;;
6424;SDS011;12193;42.642;23.384;2023-09-19T05:31:22;10.73;;;6.63;;
6424;SDS011;12193;42.642;23.384;2023-09-19T05:33:52;9.63;;;5.80;;
6424;SDS011;12193;42.642;23.384;2023-09-19T05:36:21;9.63;;;6.07;;
6424;SDS011;12193;42.642;23.384;2023-09-19T05:38:50;10.90;;;5.60;;
6424;SDS011;12193;42.642;23.384;2023-09-19T05:41:20;8.90;;;5.77;;
6424;SDS011;12193;42.642;23.384;2023-09-19T05:43:49;12.10;;;5.90;;
6424;SDS011;12193;42.642;23.384;2023-09-19T05:46:21;10.57;;;6.00;;
6424;SDS011;12193;42.642;23.384;2023-09-19T05:48:55;9.40;;;5.30;;
6424;SDS011;12193;42.642;23.384;2023-09-19T05:51:25;8.50;;;5.03;;
6424;SDS011;12193;42.642;23.384;2023-09-19T05:53:54;7.53;;;5.00;;
6424;SDS011;12193;42.642;23.384;2023-09-19T05:56:24;8.60;;;4.50;;
6424;SDS011;12193;42.642;23.384;2023-09-19T05:58:53;9.50;;;5.10;;
6424;SDS011;12193;42.642;23.384;2023-09-19T06:01:25;6.80;;;5.27;;
6424;SDS011;12193;42.642;23.384;2023-09-19T06:03:56;11.70;;;5.73;;
6424;SDS011;12193;42.642;23.384;2023-09-19T06:06:26;7.40;;;5.20;;
6424;SDS011;12193;42.642;23.384;2023-09-19T06:08:56;9.37;;;5.13;;
6424;SDS011;12193;42.642;23.384;2023-09-19T06:11:25;7.23;;;4.63;;
6424;SDS011;12193;42.642;23.384;2023-09-19T06:13:57;8.73;;;4.93;;
6424;SDS011;12193;42.642;23.384;2023-09-19T06:16:30;7.57;;;4.90;;
6424;SDS011;12193;42.642;23.384;2023-09-19T06:19:00;10.37;;;5.17;;
6424;SDS011;12193;42.642;23.384;2023-09-19T06:21:29;7.63;;;5.00;;
6424;SDS011;12193;42.642;23.384;2023-09-19T06:24:00;9.80;;;5.50;;
6424;SDS011;12193;42.642;23.384;2023-09-19T06:26:29;7.73;;;5.17;;
6424;SDS011;12193;42.642;23.384;2023-09-19T06:28:58;8.70;;;4.93;;
6424;SDS011;12193;42.642;23.384;2023-09-19T06:31:35;9.97;;;5.43;;
6424;SDS011;12193;42.642;23.384;2023-09-19T06:34:07;9.73;;;5.50;;
6424;SDS011;12193;42.642;23.384;2023-09-19T06:36:37;8.27;;;5.10;;
6424;SDS011;12193;42.642;23.384;2023-09-19T06:39:07;9.87;;;6.37;;
6424;SDS011;12193;42.642;23.384;2023-09-19T06:41:37;9.60;;;5.30;;
6424;SDS011;12193;42.642;23.384;2023-09-19T06:44:07;10.87;;;5.20;;
6424;SDS011;12193;42.642;23.384;2023-09-19T06:46:39;10.23;;;5.00;;
6424;SDS011;12193;42.642;23.384;2023-09-19T06:49:12;5.40;;;4.57;;
6424;SDS011;12193;42.642;23.384;2023-09-19T06:51:41;12.10;;;5.53;;
6424;SDS011;12193;42.642;23.384;2023-09-19T06:54:10;12.13;;;5.40;;
6424;SDS011;12193;42.642;23.384;2023-09-19T06:56:40;11.53;;;5.50;;
6424;SDS011;12193;42.642;23.384;2023-09-19T06:59:10;8.77;;;4.63;;
6424;SDS011;12193;42.642;23.384;2023-09-19T07:01:42;8.73;;;5.33;;
6424;SDS011;12193;42.642;23.384;2023-09-19T07:04:13;8.23;;;4.93;;
6424;SDS011;12193;42.642;23.384;2023-09-19T07:06:42;8.93;;;5.20;;
6424;SDS011;12193;42.642;23.384;2023-09-19T07:09:11;9.20;;;5.13;;
6424;SDS011;12193;42.642;23.384;2023-09-19T07:11:41;10.83;;;6.37;;
6424;SDS011;12193;42.642;23.384;2023-09-19T07:14:11;13.93;;;6.77;;
6424;SDS011;12193;42.642;23.384;2023-09-19T07:16:42;9.23;;;6.17;;
6424;SDS011;12193;42.642;23.384;2023-09-19T07:19:13;12.80;;;6.30;;
6424;SDS011;12193;42.642;23.384;2023-09-19T07:21:43;12.07;;;6.30;;
6424;SDS011;12193;42.642;23.384;2023-09-19T07:24:13;11.97;;;6.63;;
6424;SDS011;12193;42.642;23.384;2023-09-19T07:26:42;9.37;;;6.10;;
6424;SDS011;12193;42.642;23.384;2023-09-19T07:29:13;9.40;;;6.10;;
6424;SDS011;12193;42.642;23.384;2023-09-19T07:31:45;8.73;;;5.90;;
6424;SDS011;12193;42.642;23.384;2023-09-19T07:34:15;9.27;;;5.93;;
6424;SDS011;12193;42.642;23.384;2023-09-19T07:36:45;11.97;;;6.07;;
6424;SDS011;12193;42.642;23.384;2023-09-19T07:39:14;9.80;;;5.50;;
6424;SDS011;12193;42.642;23.384;2023-09-19T07:41:44;9.27;;;5.17;;
6424;SDS011;12193;42.642;23.384;2023-09-19T07:44:14;11.73;;;6.13;;
6424;SDS011;12193;42.642;23.384;2023-09-19T07:46:46;11.60;;;5.77;;
6424;SDS011;12193;42.642;23.384;2023-09-19T07:49:16;13.53;;;5.77;;
6424;SDS011;12193;42.642;23.384;2023-09-19T07:51:46;8.10;;;5.00;;
6424;SDS011;12193;42.642;23.384;2023-09-19T07:54:15;13.87;;;5.80;;
6424;SDS011;12193;42.642;23.384;2023-09-19T07:56:45;9.80;;;5.07;;
6424;SDS011;12193;42.642;23.384;2023-09-19T07:59:14;7.63;;;4.90;;
6424;SDS011;12193;42.642;23.384;2023-09-19T08:01:45;6.73;;;4.70;;
6424;SDS011;12193;42.642;23.384;2023-09-19T08:04:15;9.27;;;4.83;;
6424;SDS011;12193;42.642;23.384;2023-09-19T08:06:44;9.40;;;4.73;;
6424;SDS011;12193;42.642;23.384;2023-09-19T08:09:14;9.63;;;4.90;;
6424;SDS011;12193;42.642;23.384;2023-09-19T08:11:46;6.97;;;5.17;;
6424;SDS011;12193;42.642;23.384;2023-09-19T08:14:16;9.83;;;4.80;;
6424;SDS011;12193;42.642;23.384;2023-09-19T08:16:48;9.13;;;5.10;;
6424;SDS011;12193;42.642;23.384;2023-09-19T08:19:17;8.57;;;5.20;;
6424;SDS011;12193;42.642;23.384;2023-09-19T08:21:49;7.07;;;5.00;;
6424;SDS011;12193;42.642;23.384;2023-09-19T08:24:18;12.13;;;5.10;;
6424;SDS011;12193;42.642;23.384;2023-09-19T08:26:48;7.87;;;5.20;;
6424;SDS011;12193;42.642;23.384;2023-09-19T08:29:17;8.33;;;4.83;;
6424;SDS011;12193;42.642;23.384;2023-09-19T08:31:49;9.10;;;4.47;;
6424;SDS011;12193;42.642;23.384;2023-09-19T08:34:19;9.03;;;4.80;;
6424;SDS011;12193;42.642;23.384;2023-09-19T08:36:50;8.93;;;4.83;;
6424;SDS011;12193;42.642;23.384;2023-09-19T08:39:22;8.50;;;4.47;;
6424;SDS011;12193;42.642;23.384;2023-09-19T08:41:56;9.23;;;4.80;;
6424;SDS011;12193;42.642;23.384;2023-09-19T08:44:26;8.20;;;4.90;;
6424;SDS011;12193;42.642;23.384;2023-09-19T08:46:59;6.97;;;4.67;;
6424;SDS011;12193;42.642;23.384;2023-09-19T08:49:36;5.13;;;4.63;;
6424;SDS011;12193;42.642;23.384;2023-09-19T08:52:16;8.53;;;4.70;;
6424;SDS011;12193;42.642;23.384;2023-09-19T08:54:49;7.67;;;4.63;;
6424;SDS011;12193;42.642;23.384;2023-09-19T08:57:22;7.10;;;4.80;;
6424;SDS011;12193;42.642;23.384;2023-09-19T08:59:52;9.27;;;4.80;;
6424;SDS011;12193;42.642;23.384;2023-09-19T09:02:24;6.87;;;4.60;;
6424;SDS011;12193;42.642;23.384;2023-09-19T09:04:55;7.97;;;4.83;;
6424;SDS011;12193;42.642;23.384;2023-09-19T09:07:26;8.57;;;4.30;;
6424;SDS011;12193;42.642;23.384;2023-09-19T09:09:56;7.80;;;4.40;;
6424;SDS011;12193;42.642;23.384;2023-09-19T09:12:25;7.43;;;5.00;;
6424;SDS011;12193;42.642;23.384;2023-09-19T09:14:55;8.20;;;4.60;;
6424;SDS011;12193;42.642;23.384;2023-09-19T09:17:28;6.97;;;4.87;;
6424;SDS011;12193;42.642;23.384;2023-09-19T09:19:57;6.40;;;4.33;;
6424;SDS011;12193;42.642;23.384;2023-09-19T09:22:26;12.47;;;5.27;;
6424;SDS011;12193;42.642;23.384;2023-09-19T09:24:57;7.43;;;4.73;;
6424;SDS011;12193;42.642;23.384;2023-09-19T09:27:29;6.67;;;5.00;;
6424;SDS011;12193;42.642;23.384;2023-09-19T09:30:00;9.00;;;4.90;;
6424;SDS011;12193;42.642;23.384;2023-09-19T09:32:31;14.43;;;5.23;;
6424;SDS011;12193;42.642;23.384;2023-09-19T09:35:06;8.33;;;4.63;;
6424;SDS011;12193;42.642;23.384;2023-09-19T09:37:40;7.50;;;4.63;;
6424;SDS011;12193;42.642;23.384;2023-09-19T09:40:13;11.47;;;5.00;;
6424;SDS011;12193;42.642;23.384;2023-09-19T09:43:02;7.13;;;4.60;;
6424;SDS011;12193;42.642;23.384;2023-09-19T09:45:32;12.07;;;5.33;;
6424;SDS011;12193;42.642;23.384;2023-09-19T09:48:16;10.73;;;4.60;;
6424;SDS011;12193;42.642;23.384;2023-09-19T09:50:57;7.37;;;4.57;;
6424;SDS011;12193;42.642;23.384;2023-09-19T09:53:30;8.90;;;4.80;;
6424;SDS011;12193;42.642;23.384;2023-09-19T09:56:00;8.53;;;5.27;;
6424;SDS011;12193;42.642;23.384;2023-09-19T09:58:32;6.13;;;4.57;;
6424;SDS011;12193;42.642;23.384;2023-09-19T10:01:02;9.37;;;5.10;;
6424;SDS011;12193;42.642;23.384;2023-09-19T10:03:44;6.70;;;4.80;;
6424;SDS011;12193;42.642;23.384;2023-09-19T10:06:17;9.63;;;4.93;;
6424;SDS011;12193;42.642;23.384;2023-09-19T10:08:57;7.17;;;5.07;;
6424;SDS011;12193;42.642;23.384;2023-09-19T10:11:41;10.97;;;5.50;;
6424;SDS011;12193;42.642;23.384;2023-09-19T10:14:20;9.73;;;4.77;;
6424;SDS011;12193;42.642;23.384;2023-09-19T10:16:58;7.50;;;5.10;;
6424;SDS011;12193;42.642;23.384;2023-09-19T10:19:33;9.37;;;5.20;;
6424;SDS011;12193;42.642;23.384;2023-09-19T10:22:06;6.73;;;4.80;;
6424;SDS011;12193;42.642;23.384;2023-09-19T10:24:37;9.67;;;5.10;;
6424;SDS011;12193;42.642;23.384;2023-09-19T10:27:08;7.20;;;5.50;;
6424;SDS011;12193;42.642;23.384;2023-09-19T10:29:38;9.53;;;5.53;;
6424;SDS011;12193;42.642;23.384;2023-09-19T10:32:08;8.93;;;5.00;;
6424;SDS011;12193;42.642;23.384;2023-09-19T10:34:46;7.13;;;4.87;;
6424;SDS011;12193;42.642;23.384;2023-09-19T10:37:20;8.53;;;5.00;;
6424;SDS011;12193;42.642;23.384;2023-09-19T10:39:52;6.27;;;4.83;;
6424;SDS011;12193;42.642;23.384;2023-09-19T10:42:25;7.17;;;4.77;;
6424;SDS011;12193;42.642;23.384;2023-09-19T10:44:57;9.67;;;5.10;;
6424;SDS011;12193;42.642;23.384;2023-09-19T10:47:29;8.80;;;4.70;;
6424;SDS011;12193;42.642;23.384;2023-09-19T10:50:02;9.23;;;4.90;;
6424;SDS011;12193;42.642;23.384;2023-09-19T10:52:32;8.37;;;4.83;;
6424;SDS011;12193;42.642;23.384;2023-09-19T10:55:07;6.20;;;4.60;;
6424;SDS011;12193;42.642;23.384;2023-09-19T10:57:37;8.63;;;5.33;;
6424;SDS011;12193;42.642;23.384;2023-09-19T11:00:07;10.40;;;4.83;;
6424;SDS011;12193;42.642;23.384;2023-09-19T11:06:08;10.00;;;4.83;;
6424;SDS011;12193;42.642;23.384;2023-09-19T11:08:52;7.37;;;5.23;;
6424;SDS011;12193;42.642;23.384;2023-09-19T11:11:39;5.73;;;4.77;;
6424;SDS011;12193;42.642;23.384;2023-09-19T11:14:28;9.63;;;5.30;;
6424;SDS011;12193;42.642;23.384;2023-09-19T11:20:21;8.13;;;5.13;;
6424;SDS011;12193;42.642;23.384;2023-09-19T11:23:20;5.80;;;4.60;;
6424;SDS011;12193;42.642;23.384;2023-09-19T11:25:51;8.63;;;5.77;;
6424;SDS011;12193;42.642;23.384;2023-09-19T11:28:28;7.27;;;4.80;;
6424;SDS011;12193;42.642;23.384;2023-09-19T11:30:59;5.90;;;4.83;;
6424;SDS011;12193;42.642;23.384;2023-09-19T11:33:51;7.23;;;5.00;;
6424;SDS011;12193;42.642;23.384;2023-09-19T11:36:55;6.90;;;5.10;;
6424;SDS011;12193;42.642;23.384;2023-09-19T11:39:26;8.33;;;5.30;;
6424;SDS011;12193;42.642;23.384;2023-09-19T11:41:56;7.23;;;4.43;;
6424;SDS011;12193;42.642;23.384;2023-09-19T11:44:32;7.87;;;5.27;;
6424;SDS011;12193;42.642;23.384;2023-09-19T11:47:04;6.97;;;5.20;;
6424;SDS011;12193;42.642;23.384;2023-09-19T11:49:40;9.33;;;5.10;;
6424;SDS011;12193;42.642;23.384;2023-09-19T11:52:10;9.43;;;5.03;;
6424;SDS011;12193;42.642;23.384;2023-09-19T11:54:54;9.17;;;5.10;;
6424;SDS011;12193;42.642;23.384;2023-09-19T11:57:24;8.53;;;4.97;;
6424;SDS011;12193;42.642;23.384;2023-09-19T11:59:53;14.03;;;5.20;;
6424;SDS011;12193;42.642;23.384;2023-09-19T12:02:29;7.73;;;5.23;;
6424;SDS011;12193;42.642;23.384;2023-09-19T12:05:09;6.33;;;4.83;;
6424;SDS011;12193;42.642;23.384;2023-09-19T12:07:42;8.53;;;4.70;;
6424;SDS011;12193;42.642;23.384;2023-09-19T12:10:14;10.17;;;5.30;;
6424;SDS011;12193;42.642;23.384;2023-09-19T12:12:47;8.30;;;5.50;;
6424;SDS011;12193;42.642;23.384;2023-09-19T12:15:22;6.43;;;4.93;;
6424;SDS011;12193;42.642;23.384;2023-09-19T12:17:54;7.10;;;4.80;;
6424;SDS011;12193;42.642;23.384;2023-09-19T12:20:27;7.97;;;5.27;;
6424;SDS011;12193;42.642;23.384;2023-09-19T12:23:13;7.00;;;5.20;;
6424;SDS011;12193;42.642;23.384;2023-09-19T12:25:43;8.33;;;4.97;;
6424;SDS011;12193;42.642;23.384;2023-09-19T12:28:18;8.70;;;5.20;;
6424;SDS011;12193;42.642;23.384;2023-09-19T12:30:47;10.37;;;5.63;;
6424;SDS011;12193;42.642;23.384;2023-09-19T12:33:18;7.67;;;5.60;;
6424;SDS011;12193;42.642;23.384;2023-09-19T12:35:54;9.20;;;5.33;;
6424;SDS011;12193;42.642;23.384;2023-09-19T12:38:24;8.60;;;5.43;;
6424;SDS011;12193;42.642;23.384;2023-09-19T12:40:54;8.33;;;5.30;;
6424;SDS011;12193;42.642;23.384;2023-09-19T12:43:25;7.13;;;5.03;;
6424;SDS011;12193;42.642;23.384;2023-09-19T12:45:58;6.50;;;4.97;;
6424;SDS011;12193;42.642;23.384;2023-09-19T12:48:28;6.47;;;5.10;;
6424;SDS011;12193;42.642;23.384;2023-09-19T12:51:07;6.93;;;5.23;;
6424;SDS011;12193;42.642;23.384;2023-09-19T12:53:38;6.30;;;4.83;;
6424;SDS011;12193;42.642;23.384;2023-09-19T12:56:10;7.57;;;5.40;;
6424;SDS011;12193;42.642;23.384;2023-09-19T12:58:54;8.17;;;5.23;;
6424;SDS011;12193;42.642;23.384;2023-09-19T13:01:25;8.77;;;4.60;;
6424;SDS011;12193;42.642;23.384;2023-09-19T13:06:46;8.83;;;5.50;;
6424;SDS011;12193;42.642;23.384;2023-09-19T13:09:17;7.33;;;5.27;;
6424;SDS011;12193;42.642;23.384;2023-09-19T13:11:48;8.00;;;5.00;;
6424;SDS011;12193;42.642;23.384;2023-09-19T13:14:19;7.17;;;5.30;;
6424;SDS011;12193;42.642;23.384;2023-09-19T13:16:57;7.63;;;5.00;;
6424;SDS011;12193;42.642;23.384;2023-09-19T13:19:36;8.30;;;5.03;;
6424;SDS011;12193;42.642;23.384;2023-09-19T13:25:12;10.57;;;5.40;;
6424;SDS011;12193;42.642;23.384;2023-09-19T13:27:44;10.97;;;5.67;;
6424;SDS011;12193;42.642;23.384;2023-09-19T13:30:17;7.63;;;5.20;;
6424;SDS011;12193;42.642;23.384;2023-09-19T13:32:47;8.63;;;5.90;;
6424;SDS011;12193;42.642;23.384;2023-09-19T13:35:17;8.67;;;5.40;;
6424;SDS011;12193;42.642;23.384;2023-09-19T13:37:49;9.80;;;5.07;;
6424;SDS011;12193;42.642;23.384;2023-09-19T13:40:18;8.23;;;5.20;;
6424;SDS011;12193;42.642;23.384;2023-09-19T13:42:47;8.53;;;5.30;;
6424;SDS011;12193;42.642;23.384;2023-09-19T13:45:19;9.40;;;5.53;;
6424;SDS011;12193;42.642;23.384;2023-09-19T13:47:50;9.53;;;5.23;;
6424;SDS011;12193;42.642;23.384;2023-09-19T13:50:20;6.53;;;5.40;;
6424;SDS011;12193;42.642;23.384;2023-09-19T13:52:52;8.37;;;5.73;;
6424;SDS011;12193;42.642;23.384;2023-09-19T13:55:22;7.13;;;5.17;;
6424;SDS011;12193;42.642;23.384;2023-09-19T13:57:51;7.70;;;5.37;;
6424;SDS011;12193;42.642;23.384;2023-09-19T14:00:21;9.83;;;5.93;;
6424;SDS011;12193;42.642;23.384;2023-09-19T14:02:51;11.87;;;5.63;;
6424;SDS011;12193;42.642;23.384;2023-09-19T14:05:21;12.10;;;5.77;;
6424;SDS011;12193;42.642;23.384;2023-09-19T14:07:55;11.67;;;5.97;;
6424;SDS011;12193;42.642;23.384;2023-09-19T14:10:25;8.57;;;5.50;;
6424;SDS011;12193;42.642;23.384;2023-09-19T14:12:56;7.10;;;5.60;;
6424;SDS011;12193;42.642;23.384;2023-09-19T14:15:26;8.57;;;5.40;;
6424;SDS011;12193;42.642;23.384;2023-09-19T14:17:58;8.57;;;5.47;;
6424;SDS011;12193;42.642;23.384;2023-09-19T14:20:28;8.30;;;5.40;;
6424;SDS011;12193;42.642;23.384;2023-09-19T14:23:00;8.87;;;6.00;;
6424;SDS011;12193;42.642;23.384;2023-09-19T14:25:30;8.33;;;6.07;;
6424;SDS011;12193;42.642;23.384;2023-09-19T14:27:59;7.63;;;6.37;;
6424;SDS011;12193;42.642;23.384;2023-09-19T14:30:29;8.37;;;5.37;;
6424;SDS011;12193;42.642;23.384;2023-09-19T14:32:58;10.53;;;6.10;;
6424;SDS011;12193;42.642;23.384;2023-09-19T14:35:28;7.50;;;5.20;;
6424;SDS011;12193;42.642;23.384;2023-09-19T14:38:00;7.53;;;5.50;;
6424;SDS011;12193;42.642;23.384;2023-09-19T14:40:29;8.50;;;5.63;;
6424;SDS011;12193;42.642;23.384;2023-09-19T14:42:58;9.00;;;6.00;;
6424;SDS011;12193;42.642;23.384;2023-09-19T14:45:28;7.43;;;5.50;;
6424;SDS011;12193;42.642;23.384;2023-09-19T14:47:57;7.00;;;5.47;;
6424;SDS011;12193;42.642;23.384;2023-09-19T14:50:31;6.27;;;5.40;;
6424;SDS011;12193;42.642;23.384;2023-09-19T14:53:03;8.93;;;6.00;;
6424;SDS011;12193;42.642;23.384;2023-09-19T14:55:36;8.27;;;5.30;;
6424;SDS011;12193;42.642;23.384;2023-09-19T14:58:07;9.07;;;5.67;;
6424;SDS011;12193;42.642;23.384;2023-09-19T15:00:37;7.17;;;5.83;;
6424;SDS011;12193;42.642;23.384;2023-09-19T15:03:06;15.03;;;5.90;;
6424;SDS011;12193;42.642;23.384;2023-09-19T15:05:36;9.20;;;5.43;;
6424;SDS011;12193;42.642;23.384;2023-09-19T15:08:08;9.00;;;6.27;;
6424;SDS011;12193;42.642;23.384;2023-09-19T15:10:37;9.90;;;5.83;;
6424;SDS011;12193;42.642;23.384;2023-09-19T15:13:07;8.17;;;5.80;;
6424;SDS011;12193;42.642;23.384;2023-09-19T15:15:37;8.30;;;5.70;;
6424;SDS011;12193;42.642;23.384;2023-09-19T15:18:06;8.67;;;6.13;;
6424;SDS011;12193;42.642;23.384;2023-09-19T15:20:35;8.50;;;5.97;;
6424;SDS011;12193;42.642;23.384;2023-09-19T15:23:07;9.67;;;5.90;;
6424;SDS011;12193;42.642;23.384;2023-09-19T15:25:38;11.97;;;6.90;;
6424;SDS011;12193;42.642;23.384;2023-09-19T15:28:07;8.93;;;5.90;;
6424;SDS011;12193;42.642;23.384;2023-09-19T15:30:37;9.27;;;6.10;;
6424;SDS011;12193;42.642;23.384;2023-09-19T15:33:06;10.50;;;6.43;;
6424;SDS011;12193;42.642;23.384;2023-09-19T15:35:36;10.77;;;6.17;;
6424;SDS011;12193;42.642;23.384;2023-09-19T15:38:08;11.60;;;5.90;;
6424;SDS011;12193;42.642;23.384;2023-09-19T15:40:45;9.33;;;6.07;;
6424;SDS011;12193;42.642;23.384;2023-09-19T15:43:15;9.93;;;6.37;;
6424;SDS011;12193;42.642;23.384;2023-09-19T15:45:47;9.60;;;6.33;;
6424;SDS011;12193;42.642;23.384;2023-09-19T15:48:17;11.00;;;5.80;;
6424;SDS011;12193;42.642;23.384;2023-09-19T15:50:47;13.33;;;6.50;;
6424;SDS011;12193;42.642;23.384;2023-09-19T15:53:19;12.83;;;5.90;;
6424;SDS011;12193;42.642;23.384;2023-09-19T15:55:48;11.77;;;5.60;;
6424;SDS011;12193;42.642;23.384;2023-09-19T15:58:18;8.73;;;6.03;;
6424;SDS011;12193;42.642;23.384;2023-09-19T16:00:47;13.23;;;5.30;;
6424;SDS011;12193;42.642;23.384;2023-09-19T16:03:18;11.23;;;5.60;;
6424;SDS011;12193;42.642;23.384;2023-09-19T16:05:50;9.63;;;6.37;;
6424;SDS011;12193;42.642;23.384;2023-09-19T16:08:22;8.30;;;5.87;;
6424;SDS011;12193;42.642;23.384;2023-09-19T16:10:53;9.50;;;5.90;;
6424;SDS011;12193;42.642;23.384;2023-09-19T16:13:22;9.37;;;6.20;;
6424;SDS011;12193;42.642;23.384;2023-09-19T16:15:51;10.23;;;5.80;;
6424;SDS011;12193;42.642;23.384;2023-09-19T16:18:21;10.30;;;5.83;;
6424;SDS011;12193;42.642;23.384;2023-09-19T16:20:50;10.37;;;5.73;;
6424;SDS011;12193;42.642;23.384;2023-09-19T16:23:22;9.77;;;5.60;;
6424;SDS011;12193;42.642;23.384;2023-09-19T16:25:59;12.07;;;6.20;;
6424;SDS011;12193;42.642;23.384;2023-09-19T16:28:30;7.63;;;5.80;;
6424;SDS011;12193;42.642;23.384;2023-09-19T16:31:00;12.53;;;6.70;;
6424;SDS011;12193;42.642;23.384;2023-09-19T16:33:31;11.63;;;6.37;;
6424;SDS011;12193;42.642;23.384;2023-09-19T16:36:02;10.73;;;6.90;;
6424;SDS011;12193;42.642;23.384;2023-09-19T16:38:38;13.30;;;7.63;;
6424;SDS011;12193;42.642;23.384;2023-09-19T16:41:09;11.77;;;7.03;;
6424;SDS011;12193;42.642;23.384;2023-09-19T16:43:39;10.63;;;6.97;;
6424;SDS011;12193;42.642;23.384;2023-09-19T16:46:10;15.47;;;8.10;;
6424;SDS011;12193;42.642;23.384;2023-09-19T16:48:42;12.63;;;8.60;;
6424;SDS011;12193;42.642;23.384;2023-09-19T16:51:15;13.53;;;8.40;;
6424;SDS011;12193;42.642;23.384;2023-09-19T16:53:49;11.13;;;8.00;;
6424;SDS011;12193;42.642;23.384;2023-09-19T16:56:18;10.80;;;7.00;;
6424;SDS011;12193;42.642;23.384;2023-09-19T16:58:48;8.53;;;6.67;;
6424;SDS011;12193;42.642;23.384;2023-09-19T17:01:18;9.27;;;6.83;;
6424;SDS011;12193;42.642;23.384;2023-09-19T17:03:50;13.57;;;7.50;;
6424;SDS011;12193;42.642;23.384;2023-09-19T17:06:19;10.60;;;7.10;;
6424;SDS011;12193;42.642;23.384;2023-09-19T17:08:53;10.60;;;6.97;;
6424;SDS011;12193;42.642;23.384;2023-09-19T17:11:22;12.73;;;7.47;;
6424;SDS011;12193;42.642;23.384;2023-09-19T17:13:51;14.43;;;7.73;;
6424;SDS011;12193;42.642;23.384;2023-09-19T17:16:22;9.67;;;6.97;;
6424;SDS011;12193;42.642;23.384;2023-09-19T17:18:55;9.43;;;6.33;;
6424;SDS011;12193;42.642;23.384;2023-09-19T17:21:25;9.57;;;6.57;;
6424;SDS011;12193;42.642;23.384;2023-09-19T17:23:58;12.93;;;7.00;;
6424;SDS011;12193;42.642;23.384;2023-09-19T17:26:29;10.40;;;7.00;;
6424;SDS011;12193;42.642;23.384;2023-09-19T17:28:59;11.00;;;7.30;;
6424;SDS011;12193;42.642;23.384;2023-09-19T17:31:28;11.73;;;7.80;;
6424;SDS011;12193;42.642;23.384;2023-09-19T17:33:58;10.13;;;7.30;;
6424;SDS011;12193;42.642;23.384;2023-09-19T17:36:27;11.20;;;7.37;;
6424;SDS011;12193;42.642;23.384;2023-09-19T17:39:00;11.13;;;6.73;;
6424;SDS011;12193;42.642;23.384;2023-09-19T17:41:31;10.90;;;7.37;;
6424;SDS011;12193;42.642;23.384;2023-09-19T17:44:01;10.07;;;6.77;;
6424;SDS011;12193;42.642;23.384;2023-09-19T17:46:30;9.27;;;6.77;;
6424;SDS011;12193;42.642;23.384;2023-09-19T17:49:02;9.10;;;6.13;;
6424;SDS011;12193;42.642;23.384;2023-09-19T17:51:32;10.60;;;6.80;;
6424;SDS011;12193;42.642;23.384;2023-09-19T17:54:04;9.37;;;6.10;;
6424;SDS011;12193;42.642;23.384;2023-09-19T17:56:33;10.90;;;6.30;;
6424;SDS011;12193;42.642;23.384;2023-09-19T17:59:03;9.13;;;6.00;;
6424;SDS011;12193;42.642;23.384;2023-09-19T18:01:33;8.97;;;6.57;;
6424;SDS011;12193;42.642;23.384;2023-09-19T18:04:03;11.50;;;5.83;;
6424;SDS011;12193;42.642;23.384;2023-09-19T18:06:33;10.77;;;6.60;;
6424;SDS011;12193;42.642;23.384;2023-09-19T18:09:06;11.33;;;6.10;;
6424;SDS011;12193;42.642;23.384;2023-09-19T18:11:36;7.33;;;6.10;;
6424;SDS011;12193;42.642;23.384;2023-09-19T18:14:05;12.07;;;7.13;;
6424;SDS011;12193;42.642;23.384;2023-09-19T18:16:35;7.87;;;6.47;;
6424;SDS011;12193;42.642;23.384;2023-09-19T18:19:04;12.37;;;7.50;;
6424;SDS011;12193;42.642;23.384;2023-09-19T18:21:34;9.67;;;6.73;;